Station: Kununurra Airport  

  Atmospheric Gas Attenuation - ITU Rec 676-11   ----------------- dB/100km -----------------
Date Time Temp RH % AH g/m3 Dew Point Wind Direction Speed kph Gust kph Barometer mB Rainfall Since 9am 24GHz 47GHz 76GHz 122GHz 134GHz 241GHz
08/05 11:00 26.6 35 8.81 9.9 24 39 1016.5 0 19.4 22.9 34.8 91.3 86.3 297.7
08/05 10:50 25.9 35 8.47 9.3 20 26 1016.5 0 18.7 22.6 34.0 89.0 83.2 286.8
08/05 10:40 25.6 35 8.33 9 26 33 1016.6 0 18.5 22.5 33.6 88.0 82.0 282.4
08/05 10:30 25.2 36 8.38 9.1 24 37 1016.7 0 18.6 22.6 33.9 88.9 83.0 285.7
08/05 10:20 25.2 35 8.15 8.7 22 28 1016.7 0 18.1 22.3 33.2 86.8 80.4 276.7
08/05 10:10 25 36 8.29 8.9 30 33 1016.6 0 18.4 22.6 33.7 88.3 82.1 282.9
08/05 10:00 25.1 39 9.03 10.2 24 37 1016.7 0 20.0 23.6 36.2 95.1 90.5 312.1
08/05 09:50 24.5 38 8.5 9.3 24 26 1016.6 0 18.9 23.0 34.6 90.8 85.0 293.0
08/05 09:40 24.1 38 8.31 8.9 22 28 1016.5 0 18.5 22.8 34.2 89.5 83.3 286.8
08/05 09:30 24.1 38 8.31 8.9 24 43 1016.6 0 18.5 22.8 34.2 89.5 83.3 286.8
08/05 09:20 24.2 39 8.58 9.4 24 33 1016.5 0 19.1 23.2 35.0 91.9 86.3 297.2
08/05 09:10 23.5 40 8.46 9.1 20 22 1016.4 0 18.8 23.2 34.9 91.5 85.6 294.9
08/05 09:00 23 40 8.22 8.7 19 22 1016.5 0 18.4 23.0 34.3 89.8 83.4 287.0
08/05 08:50 23 42 8.63 9.4 19 20 1016.4 0 19.2 23.5 35.7 93.7 88.1 303.7
08/05 08:40 22.5 43 8.59 9.3 17 19 1016.3 0 19.2 23.6 35.8 93.9 88.2 303.9
08/05 08:30 22.4 43 8.54 9.2 19 26 1016.3 0 19.1 23.6 35.7 93.5 87.7 302.2
08/05 08:20 21.9 44 8.49 9.1 19 20 1016.2 0 19.0 23.6 35.7 93.6 87.7 302.0
08/05 08:10 21.7 45 8.58 9.3 20 24 1016.2 0 19.2 23.8 36.1 94.7 89.0 306.5
08/05 08:00 21.4 45 8.44 9 17 24 1016.4 0 18.9 23.7 35.8 93.7 87.7 301.8
08/05 07:50 21.2 45 8.34 8.8 15 17 1016.1 0 18.7 23.6 35.5 93.0 86.7 298.3
08/05 07:40 21 46 8.43 8.9 17 19 1016 0 18.9 23.8 35.9 94.1 88.0 302.8
08/05 07:30 20.7 47 8.46 9 13 17 1015.8 0 19.0 23.9 36.1 94.7 88.6 305.1
08/05 07:20 20.5 47 8.36 8.8 13 17 1015.7 0 18.8 23.8 35.8 93.9 87.6 301.7
08/05 07:10 20.5 46 8.18 8.5 13 15 1015.7 0 18.4 23.5 35.2 92.2 85.5 294.1
08/05 07:00 20.6 45 8.05 8.3 15 20 1015.6 0 18.1 23.3 34.7 90.8 83.8 288.3
08/05 06:50 20.7 45 8.1 8.4 15 17 1015.3 0 18.2 23.3 34.8 91.1 84.3 290.0
08/05 06:40 20.7 45 8.1 8.4 17 20 1015.2 0 18.2 23.3 34.8 91.1 84.3 290.0
08/05 06:30 20.8 45 8.15 8.4 15 22 1015.2 0 18.3 23.4 34.9 91.5 84.8 291.7
08/05 06:20 20.8 45 8.15 8.4 17 20 1015 0 18.3 23.4 34.9 91.5 84.8 291.6
08/05 06:10 20.9 45 8.19 8.5 15 19 1014.9 0 18.4 23.4 35.0 91.7 85.1 292.9
08/05 06:00 20.7 46 8.28 8.7 15 22 1015 0 18.6 23.6 35.4 92.9 86.4 297.4
08/05 05:50 20.7 46 8.28 8.7 15 17 1014.9 0 18.6 23.6 35.4 92.8 86.4 297.4
08/05 05:40 20.9 45 8.19 8.5 13 15 1014.9 0 18.4 23.4 35.0 91.7 85.1 292.9
08/05 05:30 20.6 46 8.23 8.6 13 17 1015 0 18.5 23.5 35.3 92.5 85.9 295.7
08/05 05:20 20.8 46 8.33 8.8 13 17 1014.9 0 18.7 23.6 35.6 93.2 86.9 299.1
08/05 05:10 20.8 46 8.33 8.8 13 17 1014.8 0 18.7 23.6 35.6 93.2 86.9 299.1
08/05 05:00 21 45 8.24 8.6 15 20 1014.9 0 18.5 23.4 35.2 92.1 85.6 294.6
08/05 04:50 21.1 44 8.11 8.4 15 19 1014.9 0 18.2 23.2 34.6 90.8 84.0 288.9
08/05 04:40 21.2 43 7.97 8.1 13 17 1014.9 0 17.9 23.0 34.1 89.3 82.2 282.8
08/05 04:30 21.5 42 7.92 8.1 15 20 1015 0 17.8 22.9 33.8 88.5 81.4 279.7
08/05 04:20 21.6 41 7.78 7.8 15 19 1014.9 0 17.5 22.6 33.3 87.1 79.6 273.6
08/05 04:10 21.4 42 7.87 8 15 19 1015 0 17.7 22.8 33.7 88.2 80.9 278.0
08/05 04:00 21.4 42 7.87 8 13 19 1015.2 0 17.7 22.8 33.7 88.2 80.9 278.1
08/05 03:50 21.5 41 7.73 7.7 15 17 1015.2 0 17.4 22.6 33.1 86.8 79.2 272.0
08/05 03:40 21.4 42 7.87 8 11 13 1015.2 0 17.7 22.8 33.7 88.2 80.9 278.1
08/05 03:30 21.5 41 7.73 7.7 15 20 1015.4 0 17.4 22.6 33.2 86.8 79.2 272.1
08/05 03:20 21.7 40 7.63 7.5 15 19 1015.4 0 17.2 22.4 32.7 85.6 77.8 267.4
08/05 03:10 21.8 40 7.67 7.6 13 17 1015.4 0 17.3 22.4 32.8 85.9 78.2 268.7
08/05 03:00 22.1 39 7.61 7.5 17 22 1015.5 0 17.1 22.3 32.5 85.0 77.2 265.3
08/05 02:50 22.3 38 7.5 7.3 17 20 1015.5 0 16.9 22.1 32.0 83.8 75.8 260.3
08/05 02:40 22.4 38 7.55 7.4 17 20 1015.6 0 17.0 22.1 32.2 84.2 76.3 261.9
08/05 02:30 22.5 37 7.39 7.1 17 22 1015.7 0 16.6 21.9 31.6 82.6 74.4 255.3
08/05 02:20 22.6 37 7.43 7.2 19 22 1015.6 0 16.7 21.9 31.7 82.9 74.7 256.6
08/05 02:10 22.5 37 7.39 7.1 13 17 1015.6 0 16.6 21.9 31.6 82.6 74.4 255.3
08/05 02:00 22.6 37 7.43 7.2 17 20 1015.8 0 16.7 21.9 31.7 82.9 74.7 256.6
08/05 01:50 22.7 37 7.48 7.3 19 22 1015.7 0 16.8 22.0 31.8 83.2 75.2 258.2
08/05 01:40 22.5 38 7.59 7.5 13 15 1015.9 0 17.1 22.2 32.3 84.5 76.6 263.3
08/05 01:30 22.9 37 7.56 7.4 15 20 1016 0 17.0 22.0 32.0 83.8 75.9 260.8
08/05 01:20 22.2 40 7.85 8 11 15 1016 0 17.6 22.6 33.3 87.2 79.9 274.7
08/05 01:10 22.5 39 7.79 7.9 11 13 1016 0 17.5 22.5 33.0 86.3 78.9 271.3
08/05 01:00 22.8 38 7.72 7.8 13 17 1016.2 0 17.3 22.3 32.6 85.4 77.9 267.6
08/05 00:50 22.8 38 7.72 7.8 15 17 1016.1 0 17.3 22.3 32.6 85.4 77.8 267.5
08/05 00:40 22.8 38 7.72 7.8 11 15 1016.2 0 17.3 22.3 32.6 85.4 77.9 267.6
08/05 00:30 22.8 38 7.72 7.8 13 19 1016.3 0 17.3 22.3 32.6 85.4 77.9 267.6
08/05 00:20 22.8 39 7.92 8.1 13 15 1016.2 0 17.7 22.6 33.3 87.2 80.1 275.5
08/05 00:10 22.8 39 7.92 8.1 11 13 1016.2 0 17.7 22.6 33.3 87.2 80.1 275.5
08/05 00:00 22.9 39 7.97 8.2 13 17 1016.3 0 17.8 22.6 33.5 87.6 80.6 277.2
07/05 23:50 23 40 8.22 8.7 15 17 1016.1 0 18.4 22.9 34.3 89.8 83.4 286.9
07/05 23:40 22.9 42 8.58 9.3 15 17 1016.2 0 19.1 23.5 35.6 93.3 87.7 302.0
07/05 23:30 22.9 40 8.17 8.6 11 17 1016.3 0 18.3 22.9 34.2 89.5 82.9 285.3
07/05 23:20 22.9 41 8.38 9 7 9 1016.3 0 18.7 23.2 34.9 91.4 85.3 293.8
07/05 23:10 23.8 37 7.96 8.2 9 11 1016.2 0 17.8 22.4 33.1 86.5 79.6 273.8
07/05 23:00 24.6 35 7.88 8.1 17 24 1016.2 0 17.6 22.1 32.5 85.0 77.9 268.0
07/05 22:50 24.8 34 7.74 7.9 15 17 1016.1 0 17.3 21.8 31.9 83.5 76.2 261.9
07/05 22:40 25 33 7.6 7.6 17 19 1016.2 0 17.0 21.6 31.4 82.1 74.4 255.8
07/05 22:30 25.1 33 7.64 7.7 19 26 1016.3 0 17.1 21.6 31.5 82.3 74.8 257.1
07/05 22:20 25.4 33 7.77 8 17 20 1016.2 0 17.3 21.7 31.8 83.2 75.9 261.1
07/05 22:10 25.4 33 7.77 8 15 19 1016.3 0 17.3 21.8 31.8 83.2 75.9 261.2
07/05 22:00 25.4 33 7.77 8 15 20 1016.4 0 17.3 21.8 31.8 83.2 76.0 261.2
07/05 21:50 25.7 32 7.66 7.8 17 26 1016.2 0 17.1 21.5 31.3 81.9 74.5 256.0
07/05 21:40 25.6 33 7.86 8.1 17 20 1016.2 0 17.5 21.8 32.0 83.8 76.7 264.0
07/05 21:30 25.5 32 7.58 7.6 17 22 1016.3 0 16.9 21.5 31.1 81.4 73.8 253.6
07/05 21:20 25.4 32 7.53 7.5 15 17 1016.1 0 16.8 21.4 31.0 81.0 73.3 251.9
07/05 21:10 26.1 31 7.59 7.7 19 22 1015.9 0 16.9 21.3 30.9 80.9 73.3 252.0
07/05 21:00 25.8 33 7.94 8.3 15 22 1015.9 0 17.7 21.9 32.2 84.3 77.4 266.4
07/05 20:50 25.2 33 7.68 7.8 15 19 1015.7 0 17.1 21.7 31.5 82.5 75.1 258.2
07/05 20:40 25 34 7.83 8.1 15 17 1015.6 0 17.5 21.9 32.1 84.1 76.9 264.6
07/05 20:30 23.9 38 8.22 8.7 13 17 1015.6 0 18.3 22.7 33.9 88.8 82.4 283.7
07/05 20:20 23.2 40 8.32 8.9 13 15 1015.3 0 18.6 23.0 34.5 90.4 84.2 290.1
07/05 20:10 23.2 40 8.32 8.9 11 13 1015.2 0 18.6 23.0 34.5 90.4 84.2 290.0
07/05 20:00 23.5 39 8.25 8.8 11 13 1015.1 0 18.4 22.8 34.1 89.4 83.1 286.1
07/05 19:50 23.6 39 8.29 8.8 13 15 1014.9 0 18.5 22.9 34.2 89.7 83.5 287.3
07/05 19:40 24 37 8.05 8.4 13 13 1014.8 0 18.0 22.4 33.2 87.0 80.3 276.4
07/05 19:30 24.4 35 7.79 8 11 13 1014.8 0 17.4 22.0 32.2 84.3 77.0 264.8
07/05 19:20 25.5 33 7.81 8.1 11 11 1014.6 0 17.4 21.7 31.8 83.3 76.2 262.0
07/05 19:10 26.1 32 7.83 8.1 11 13 1014.5 0 17.4 21.6 31.7 82.9 75.8 260.9
07/05 19:00 26.2 31 7.63 7.7 13 17 1014.5 0 17.0 21.3 31.0 81.0 73.6 252.9
07/05 18:50 26.4 31 7.72 7.9 13 13 1014.4 0 17.2 21.4 31.2 81.6 74.4 255.7
07/05 18:40 26.7 30 7.59 7.7 11 15 1014.3 0 16.9 21.1 30.6 80.2 72.7 249.9
07/05 18:30 27.4 29 7.63 7.8 15 20 1014.2 0 16.9 21.0 30.5 79.8 72.5 249.2

Last Refresh: 08-May-2026 11:04:09

Bureau of Meteorology